sensor_id;sensor_type;location;lat;lon;timestamp;P1;durP1;ratioP1;P2;durP2;ratioP2
3046;SDS011;1533;44.816;20.420;2022-09-09T00:02:11;14.73;;;12.70;;
3046;SDS011;1533;44.816;20.420;2022-09-09T00:04:45;14.70;;;13.10;;
3046;SDS011;1533;44.816;20.420;2022-09-09T00:07:20;13.97;;;12.40;;
3046;SDS011;1533;44.816;20.420;2022-09-09T00:15:00;16.63;;;12.33;;
3046;SDS011;1533;44.816;20.420;2022-09-09T00:17:49;15.37;;;12.83;;
3046;SDS011;1533;44.816;20.420;2022-09-09T00:23:02;14.20;;;12.23;;
3046;SDS011;1533;44.816;20.420;2022-09-09T00:25:36;16.33;;;12.20;;
3046;SDS011;1533;44.816;20.420;2022-09-09T00:28:09;16.10;;;12.30;;
3046;SDS011;1533;44.816;20.420;2022-09-09T00:30:41;16.80;;;12.53;;
3046;SDS011;1533;44.816;20.420;2022-09-09T00:33:11;19.90;;;12.53;;
3046;SDS011;1533;44.816;20.420;2022-09-09T00:35:41;13.60;;;12.20;;
3046;SDS011;1533;44.816;20.420;2022-09-09T00:38:27;17.00;;;12.77;;
3046;SDS011;1533;44.816;20.420;2022-09-09T00:41:00;15.73;;;12.73;;
3046;SDS011;1533;44.816;20.420;2022-09-09T00:43:46;17.87;;;11.03;;
3046;SDS011;1533;44.816;20.420;2022-09-09T00:54:40;14.00;;;11.13;;
3046;SDS011;1533;44.816;20.420;2022-09-09T00:57:21;14.13;;;11.90;;
3046;SDS011;1533;44.816;20.420;2022-09-09T00:59:52;14.83;;;11.27;;
3046;SDS011;1533;44.816;20.420;2022-09-09T01:02:29;17.93;;;12.03;;
3046;SDS011;1533;44.816;20.420;2022-09-09T01:05:01;24.17;;;13.43;;
3046;SDS011;1533;44.816;20.420;2022-09-09T01:07:32;13.87;;;11.37;;
3046;SDS011;1533;44.816;20.420;2022-09-09T01:09:59;15.57;;;12.77;;
3046;SDS011;1533;44.816;20.420;2022-09-09T01:12:39;16.47;;;11.90;;
3046;SDS011;1533;44.816;20.420;2022-09-09T01:15:12;15.33;;;12.87;;
3046;SDS011;1533;44.816;20.420;2022-09-09T01:28:41;19.10;;;14.07;;
3046;SDS011;1533;44.816;20.420;2022-09-09T01:31:09;21.20;;;13.60;;
3046;SDS011;1533;44.816;20.420;2022-09-09T01:33:37;16.90;;;13.83;;
3046;SDS011;1533;44.816;20.420;2022-09-09T01:38:38;15.07;;;13.43;;
3046;SDS011;1533;44.816;20.420;2022-09-09T01:41:04;20.57;;;14.13;;
3046;SDS011;1533;44.816;20.420;2022-09-09T01:43:30;14.93;;;12.80;;
3046;SDS011;1533;44.816;20.420;2022-09-09T01:45:56;20.23;;;12.77;;
3046;SDS011;1533;44.816;20.420;2022-09-09T01:48:25;20.00;;;12.47;;
3046;SDS011;1533;44.816;20.420;2022-09-09T01:50:50;18.50;;;13.80;;
3046;SDS011;1533;44.816;20.420;2022-09-09T01:53:19;13.77;;;12.30;;
3046;SDS011;1533;44.816;20.420;2022-09-09T01:55:49;14.60;;;12.13;;
3046;SDS011;1533;44.816;20.420;2022-09-09T02:01:08;16.90;;;12.77;;
3046;SDS011;1533;44.816;20.420;2022-09-09T02:03:37;18.10;;;13.90;;
3046;SDS011;1533;44.816;20.420;2022-09-09T02:06:15;17.13;;;12.63;;
3046;SDS011;1533;44.816;20.420;2022-09-09T02:08:52;13.47;;;12.07;;
3046;SDS011;1533;44.816;20.420;2022-09-09T02:11:20;18.30;;;13.13;;
3046;SDS011;1533;44.816;20.420;2022-09-09T02:13:47;20.10;;;14.23;;
3046;SDS011;1533;44.816;20.420;2022-09-09T02:16:18;15.33;;;12.87;;
3046;SDS011;1533;44.816;20.420;2022-09-09T02:18:52;18.93;;;13.87;;
3046;SDS011;1533;44.816;20.420;2022-09-09T02:21:21;18.10;;;13.60;;
3046;SDS011;1533;44.816;20.420;2022-09-09T02:23:47;19.93;;;14.60;;
3046;SDS011;1533;44.816;20.420;2022-09-09T02:26:17;16.07;;;14.20;;
3046;SDS011;1533;44.816;20.420;2022-09-09T02:28:47;17.13;;;13.80;;
3046;SDS011;1533;44.816;20.420;2022-09-09T02:31:14;18.43;;;14.20;;
3046;SDS011;1533;44.816;20.420;2022-09-09T02:33:44;17.87;;;14.10;;
3046;SDS011;1533;44.816;20.420;2022-09-09T02:36:12;18.23;;;13.60;;
3046;SDS011;1533;44.816;20.420;2022-09-09T02:38:42;16.60;;;13.80;;
3046;SDS011;1533;44.816;20.420;2022-09-09T02:41:11;18.53;;;15.93;;
3046;SDS011;1533;44.816;20.420;2022-09-09T02:43:36;19.37;;;14.30;;
3046;SDS011;1533;44.816;20.420;2022-09-09T02:49:09;17.73;;;14.03;;
3046;SDS011;1533;44.816;20.420;2022-09-09T02:54:26;17.00;;;13.30;;
3046;SDS011;1533;44.816;20.420;2022-09-09T02:56:57;20.40;;;14.80;;
3046;SDS011;1533;44.816;20.420;2022-09-09T02:59:27;15.20;;;13.40;;
3046;SDS011;1533;44.816;20.420;2022-09-09T03:01:52;15.43;;;13.27;;
3046;SDS011;1533;44.816;20.420;2022-09-09T03:04:18;14.30;;;12.80;;
3046;SDS011;1533;44.816;20.420;2022-09-09T03:06:44;19.40;;;13.43;;
3046;SDS011;1533;44.816;20.420;2022-09-09T03:09:09;20.40;;;13.60;;
3046;SDS011;1533;44.816;20.420;2022-09-09T03:11:35;14.30;;;11.80;;
3046;SDS011;1533;44.816;20.420;2022-09-09T03:14:01;17.40;;;13.10;;
3046;SDS011;1533;44.816;20.420;2022-09-09T03:16:27;15.93;;;13.40;;
3046;SDS011;1533;44.816;20.420;2022-09-09T03:18:52;20.53;;;12.60;;
3046;SDS011;1533;44.816;20.420;2022-09-09T03:21:18;19.50;;;12.63;;
3046;SDS011;1533;44.816;20.420;2022-09-09T03:23:43;12.93;;;11.10;;
3046;SDS011;1533;44.816;20.420;2022-09-09T03:26:10;20.13;;;12.13;;
3046;SDS011;1533;44.816;20.420;2022-09-09T03:28:35;16.00;;;12.13;;
3046;SDS011;1533;44.816;20.420;2022-09-09T03:31:01;19.53;;;12.93;;
3046;SDS011;1533;44.816;20.420;2022-09-09T03:33:28;15.33;;;12.60;;
3046;SDS011;1533;44.816;20.420;2022-09-09T03:35:55;18.53;;;14.00;;
3046;SDS011;1533;44.816;20.420;2022-09-09T03:38:24;23.37;;;12.50;;
3046;SDS011;1533;44.816;20.420;2022-09-09T03:40:53;18.03;;;12.20;;
3046;SDS011;1533;44.816;20.420;2022-09-09T03:43:22;19.33;;;12.73;;
3046;SDS011;1533;44.816;20.420;2022-09-09T03:45:48;14.70;;;12.10;;
3046;SDS011;1533;44.816;20.420;2022-09-09T03:48:15;17.30;;;11.63;;
3046;SDS011;1533;44.816;20.420;2022-09-09T03:50:44;13.30;;;11.90;;
3046;SDS011;1533;44.816;20.420;2022-09-09T03:53:11;16.27;;;11.30;;
3046;SDS011;1533;44.816;20.420;2022-09-09T03:55:36;18.23;;;13.00;;
3046;SDS011;1533;44.816;20.420;2022-09-09T03:58:02;16.37;;;12.47;;
3046;SDS011;1533;44.816;20.420;2022-09-09T04:00:27;17.50;;;13.20;;
3046;SDS011;1533;44.816;20.420;2022-09-09T04:02:53;15.73;;;11.90;;
3046;SDS011;1533;44.816;20.420;2022-09-09T04:05:21;18.97;;;12.93;;
3046;SDS011;1533;44.816;20.420;2022-09-09T04:07:47;19.93;;;13.50;;
3046;SDS011;1533;44.816;20.420;2022-09-09T04:10:12;17.70;;;13.03;;
3046;SDS011;1533;44.816;20.420;2022-09-09T04:12:38;21.30;;;12.63;;
3046;SDS011;1533;44.816;20.420;2022-09-09T04:15:04;16.00;;;11.53;;
3046;SDS011;1533;44.816;20.420;2022-09-09T04:17:30;14.90;;;11.47;;
3046;SDS011;1533;44.816;20.420;2022-09-09T04:19:55;14.33;;;11.90;;
3046;SDS011;1533;44.816;20.420;2022-09-09T04:22:22;15.67;;;10.53;;
3046;SDS011;1533;44.816;20.420;2022-09-09T04:24:47;17.00;;;13.00;;
3046;SDS011;1533;44.816;20.420;2022-09-09T04:27:13;14.87;;;12.00;;
3046;SDS011;1533;44.816;20.420;2022-09-09T04:29:38;17.40;;;12.53;;
3046;SDS011;1533;44.816;20.420;2022-09-09T04:32:04;17.03;;;11.90;;
3046;SDS011;1533;44.816;20.420;2022-09-09T04:34:30;14.47;;;12.10;;
3046;SDS011;1533;44.816;20.420;2022-09-09T04:36:56;17.10;;;13.37;;
3046;SDS011;1533;44.816;20.420;2022-09-09T04:39:22;13.93;;;11.37;;
3046;SDS011;1533;44.816;20.420;2022-09-09T04:41:47;22.60;;;12.07;;
3046;SDS011;1533;44.816;20.420;2022-09-09T04:44:13;14.97;;;10.80;;
3046;SDS011;1533;44.816;20.420;2022-09-09T04:46:39;17.47;;;13.13;;
3046;SDS011;1533;44.816;20.420;2022-09-09T04:49:06;17.83;;;12.03;;
3046;SDS011;1533;44.816;20.420;2022-09-09T04:51:31;17.53;;;11.43;;
3046;SDS011;1533;44.816;20.420;2022-09-09T04:53:57;17.83;;;12.80;;
3046;SDS011;1533;44.816;20.420;2022-09-09T04:56:23;22.70;;;13.67;;
3046;SDS011;1533;44.816;20.420;2022-09-09T04:58:50;15.30;;;11.20;;
3046;SDS011;1533;44.816;20.420;2022-09-09T05:01:17;13.87;;;11.53;;
3046;SDS011;1533;44.816;20.420;2022-09-09T05:03:43;19.47;;;13.13;;
3046;SDS011;1533;44.816;20.420;2022-09-09T05:06:19;19.63;;;12.33;;
3046;SDS011;1533;44.816;20.420;2022-09-09T05:08:46;17.60;;;11.47;;
3046;SDS011;1533;44.816;20.420;2022-09-09T05:11:13;18.27;;;12.10;;
3046;SDS011;1533;44.816;20.420;2022-09-09T05:13:57;21.57;;;13.30;;
3046;SDS011;1533;44.816;20.420;2022-09-09T05:16:23;18.47;;;12.73;;
3046;SDS011;1533;44.816;20.420;2022-09-09T05:18:49;15.70;;;11.63;;
3046;SDS011;1533;44.816;20.420;2022-09-09T05:21:20;15.70;;;12.80;;
3046;SDS011;1533;44.816;20.420;2022-09-09T05:23:48;15.47;;;12.23;;
3046;SDS011;1533;44.816;20.420;2022-09-09T05:37:39;14.93;;;12.37;;
3046;SDS011;1533;44.816;20.420;2022-09-09T05:40:05;19.93;;;12.90;;
3046;SDS011;1533;44.816;20.420;2022-09-09T05:42:49;15.90;;;11.23;;
3046;SDS011;1533;44.816;20.420;2022-09-09T05:45:22;15.67;;;12.00;;
3046;SDS011;1533;44.816;20.420;2022-09-09T05:47:53;13.53;;;11.17;;
3046;SDS011;1533;44.816;20.420;2022-09-09T05:50:20;14.20;;;12.30;;
3046;SDS011;1533;44.816;20.420;2022-09-09T05:52:55;16.07;;;11.60;;
3046;SDS011;1533;44.816;20.420;2022-09-09T05:55:22;19.23;;;12.57;;
3046;SDS011;1533;44.816;20.420;2022-09-09T05:57:48;19.27;;;15.67;;
3046;SDS011;1533;44.816;20.420;2022-09-09T06:00:14;16.20;;;11.93;;
3046;SDS011;1533;44.816;20.420;2022-09-09T06:02:41;16.50;;;12.17;;
3046;SDS011;1533;44.816;20.420;2022-09-09T06:05:09;14.07;;;11.87;;
3046;SDS011;1533;44.816;20.420;2022-09-09T06:07:35;18.20;;;10.57;;
3046;SDS011;1533;44.816;20.420;2022-09-09T06:10:02;15.20;;;12.40;;
3046;SDS011;1533;44.816;20.420;2022-09-09T06:12:28;14.90;;;11.50;;
3046;SDS011;1533;44.816;20.420;2022-09-09T06:14:53;15.20;;;11.20;;
3046;SDS011;1533;44.816;20.420;2022-09-09T06:17:19;15.43;;;12.37;;
3046;SDS011;1533;44.816;20.420;2022-09-09T06:19:44;15.50;;;11.60;;
3046;SDS011;1533;44.816;20.420;2022-09-09T06:22:10;13.27;;;10.40;;
3046;SDS011;1533;44.816;20.420;2022-09-09T06:24:46;12.73;;;11.23;;
3046;SDS011;1533;44.816;20.420;2022-09-09T06:27:12;19.43;;;11.40;;
3046;SDS011;1533;44.816;20.420;2022-09-09T06:29:38;17.30;;;12.60;;
3046;SDS011;1533;44.816;20.420;2022-09-09T06:32:04;19.70;;;12.80;;
3046;SDS011;1533;44.816;20.420;2022-09-09T06:34:30;15.00;;;11.57;;
3046;SDS011;1533;44.816;20.420;2022-09-09T06:36:55;14.20;;;12.07;;
3046;SDS011;1533;44.816;20.420;2022-09-09T06:39:22;18.80;;;12.57;;
3046;SDS011;1533;44.816;20.420;2022-09-09T06:41:48;14.33;;;12.10;;
3046;SDS011;1533;44.816;20.420;2022-09-09T06:44:17;18.43;;;13.50;;
3046;SDS011;1533;44.816;20.420;2022-09-09T06:46:43;15.90;;;11.27;;
3046;SDS011;1533;44.816;20.420;2022-09-09T06:49:12;20.00;;;11.63;;
3046;SDS011;1533;44.816;20.420;2022-09-09T06:51:48;17.33;;;12.83;;
3046;SDS011;1533;44.816;20.420;2022-09-09T06:54:19;15.63;;;11.40;;
3046;SDS011;1533;44.816;20.420;2022-09-09T06:56:47;14.73;;;12.00;;
3046;SDS011;1533;44.816;20.420;2022-09-09T06:59:15;15.90;;;11.83;;
3046;SDS011;1533;44.816;20.420;2022-09-09T07:01:41;13.77;;;11.53;;
3046;SDS011;1533;44.816;20.420;2022-09-09T07:04:08;16.10;;;12.20;;
3046;SDS011;1533;44.816;20.420;2022-09-09T07:06:40;13.93;;;12.47;;
3046;SDS011;1533;44.816;20.420;2022-09-09T07:09:23;17.50;;;12.77;;
3046;SDS011;1533;44.816;20.420;2022-09-09T07:11:49;14.70;;;12.00;;
3046;SDS011;1533;44.816;20.420;2022-09-09T07:14:17;16.30;;;12.90;;
3046;SDS011;1533;44.816;20.420;2022-09-09T07:16:43;19.80;;;13.20;;
3046;SDS011;1533;44.816;20.420;2022-09-09T07:19:10;14.60;;;12.90;;
3046;SDS011;1533;44.816;20.420;2022-09-09T07:21:36;19.03;;;12.60;;
3046;SDS011;1533;44.816;20.420;2022-09-09T07:24:02;17.67;;;12.80;;
3046;SDS011;1533;44.816;20.420;2022-09-09T07:26:30;15.83;;;12.20;;
3046;SDS011;1533;44.816;20.420;2022-09-09T07:28:58;13.50;;;11.60;;
3046;SDS011;1533;44.816;20.420;2022-09-09T07:31:25;12.70;;;11.40;;
3046;SDS011;1533;44.816;20.420;2022-09-09T07:33:52;14.60;;;11.83;;
3046;SDS011;1533;44.816;20.420;2022-09-09T07:36:20;16.87;;;12.63;;
3046;SDS011;1533;44.816;20.420;2022-09-09T07:39:01;17.60;;;11.20;;
3046;SDS011;1533;44.816;20.420;2022-09-09T07:41:31;15.30;;;12.80;;
3046;SDS011;1533;44.816;20.420;2022-09-09T07:43:59;15.17;;;10.90;;
3046;SDS011;1533;44.816;20.420;2022-09-09T07:46:25;15.10;;;12.07;;
3046;SDS011;1533;44.816;20.420;2022-09-09T07:48:52;14.50;;;12.00;;
3046;SDS011;1533;44.816;20.420;2022-09-09T07:51:32;18.70;;;11.60;;
3046;SDS011;1533;44.816;20.420;2022-09-09T07:54:03;19.90;;;11.33;;
3046;SDS011;1533;44.816;20.420;2022-09-09T07:56:31;13.40;;;11.23;;
3046;SDS011;1533;44.816;20.420;2022-09-09T07:58:57;15.10;;;10.93;;
3046;SDS011;1533;44.816;20.420;2022-09-09T08:04:02;19.63;;;11.70;;
3046;SDS011;1533;44.816;20.420;2022-09-09T08:06:30;15.60;;;12.23;;
3046;SDS011;1533;44.816;20.420;2022-09-09T08:08:58;13.33;;;11.97;;
3046;SDS011;1533;44.816;20.420;2022-09-09T08:11:24;18.60;;;13.07;;
3046;SDS011;1533;44.816;20.420;2022-09-09T08:13:58;17.30;;;13.30;;
3046;SDS011;1533;44.816;20.420;2022-09-09T08:16:27;19.73;;;13.50;;
3046;SDS011;1533;44.816;20.420;2022-09-09T08:18:55;16.53;;;12.97;;
3046;SDS011;1533;44.816;20.420;2022-09-09T08:21:22;18.77;;;14.33;;
3046;SDS011;1533;44.816;20.420;2022-09-09T08:24:00;16.50;;;13.60;;
3046;SDS011;1533;44.816;20.420;2022-09-09T08:26:30;15.73;;;14.00;;
3046;SDS011;1533;44.816;20.420;2022-09-09T08:28:58;15.87;;;13.03;;
3046;SDS011;1533;44.816;20.420;2022-09-09T08:31:51;16.43;;;14.20;;
3046;SDS011;1533;44.816;20.420;2022-09-09T08:34:19;14.20;;;12.50;;
3046;SDS011;1533;44.816;20.420;2022-09-09T08:36:48;13.40;;;11.87;;
3046;SDS011;1533;44.816;20.420;2022-09-09T08:39:19;12.47;;;11.03;;
3046;SDS011;1533;44.816;20.420;2022-09-09T08:52:36;19.30;;;12.30;;
3046;SDS011;1533;44.816;20.420;2022-09-09T08:55:09;14.83;;;11.30;;
3046;SDS011;1533;44.816;20.420;2022-09-09T08:57:51;16.63;;;12.77;;
3046;SDS011;1533;44.816;20.420;2022-09-09T09:00:19;13.97;;;10.57;;
3046;SDS011;1533;44.816;20.420;2022-09-09T09:03:12;14.50;;;11.87;;
3046;SDS011;1533;44.816;20.420;2022-09-09T09:05:51;13.13;;;11.13;;
3046;SDS011;1533;44.816;20.420;2022-09-09T09:08:34;13.77;;;10.90;;
3046;SDS011;1533;44.816;20.420;2022-09-09T09:11:03;14.00;;;11.47;;
3046;SDS011;1533;44.816;20.420;2022-09-09T09:13:42;12.83;;;11.40;;
3046;SDS011;1533;44.816;20.420;2022-09-09T09:16:22;15.57;;;11.17;;
3046;SDS011;1533;44.816;20.420;2022-09-09T09:18:53;13.93;;;12.17;;
3046;SDS011;1533;44.816;20.420;2022-09-09T09:24:04;14.40;;;10.90;;
3046;SDS011;1533;44.816;20.420;2022-09-09T09:26:52;14.90;;;11.20;;
3046;SDS011;1533;44.816;20.420;2022-09-09T09:29:19;16.60;;;11.50;;
3046;SDS011;1533;44.816;20.420;2022-09-09T09:31:56;15.60;;;11.53;;
3046;SDS011;1533;44.816;20.420;2022-09-09T09:34:30;16.87;;;11.57;;
3046;SDS011;1533;44.816;20.420;2022-09-09T09:36:59;14.23;;;12.60;;
3046;SDS011;1533;44.816;20.420;2022-09-09T09:39:36;15.00;;;12.90;;
3046;SDS011;1533;44.816;20.420;2022-09-09T09:42:21;13.33;;;11.30;;
3046;SDS011;1533;44.816;20.420;2022-09-09T09:44:47;14.93;;;12.17;;
3046;SDS011;1533;44.816;20.420;2022-09-09T09:47:27;17.27;;;12.80;;
3046;SDS011;1533;44.816;20.420;2022-09-09T09:49:55;18.67;;;12.87;;
3046;SDS011;1533;44.816;20.420;2022-09-09T09:52:27;13.57;;;12.03;;
3046;SDS011;1533;44.816;20.420;2022-09-09T09:54:57;14.33;;;12.50;;
3046;SDS011;1533;44.816;20.420;2022-09-09T09:57:26;16.13;;;14.13;;
3046;SDS011;1533;44.816;20.420;2022-09-09T10:02:49;14.83;;;13.00;;
3046;SDS011;1533;44.816;20.420;2022-09-09T10:05:24;17.10;;;13.63;;
3046;SDS011;1533;44.816;20.420;2022-09-09T10:08:05;17.57;;;12.37;;
3046;SDS011;1533;44.816;20.420;2022-09-09T13:23:36;11.40;;;8.33;;
3046;SDS011;1533;44.816;20.420;2022-09-09T13:28:54;12.40;;;9.40;;
3046;SDS011;1533;44.816;20.420;2022-09-09T13:31:33;12.53;;;8.50;;
3046;SDS011;1533;44.816;20.420;2022-09-09T13:34:29;13.20;;;8.87;;
3046;SDS011;1533;44.816;20.420;2022-09-09T13:37:15;12.67;;;7.93;;
3046;SDS011;1533;44.816;20.420;2022-09-09T13:40:23;9.87;;;8.87;;
3046;SDS011;1533;44.816;20.420;2022-09-09T13:49:01;10.60;;;9.50;;
3046;SDS011;1533;44.816;20.420;2022-09-09T13:51:49;13.87;;;10.20;;
3046;SDS011;1533;44.816;20.420;2022-09-09T13:54:36;15.33;;;9.83;;
3046;SDS011;1533;44.816;20.420;2022-09-09T14:02:42;11.37;;;8.10;;
3046;SDS011;1533;44.816;20.420;2022-09-09T14:05:35;12.00;;;10.03;;
3046;SDS011;1533;44.816;20.420;2022-09-09T14:08:06;9.23;;;8.00;;
3046;SDS011;1533;44.816;20.420;2022-09-09T14:11:32;11.50;;;8.90;;
3046;SDS011;1533;44.816;20.420;2022-09-09T14:18:04;10.93;;;7.70;;
3046;SDS011;1533;44.816;20.420;2022-09-09T14:21:03;9.50;;;8.40;;
3046;SDS011;1533;44.816;20.420;2022-09-09T14:27:29;11.03;;;7.10;;
3046;SDS011;1533;44.816;20.420;2022-09-09T14:30:44;9.37;;;7.73;;
3046;SDS011;1533;44.816;20.420;2022-09-09T14:33:50;9.53;;;7.90;;
3046;SDS011;1533;44.816;20.420;2022-09-09T15:08:06;8.27;;;7.50;;
3046;SDS011;1533;44.816;20.420;2022-09-09T15:10:35;10.50;;;8.20;;
3046;SDS011;1533;44.816;20.420;2022-09-09T15:13:03;10.90;;;7.40;;
3046;SDS011;1533;44.816;20.420;2022-09-09T15:15:33;10.57;;;8.33;;
3046;SDS011;1533;44.816;20.420;2022-09-09T15:17:59;11.60;;;8.87;;
3046;SDS011;1533;44.816;20.420;2022-09-09T15:20:28;8.17;;;7.37;;
3046;SDS011;1533;44.816;20.420;2022-09-09T15:22:56;13.70;;;8.43;;
3046;SDS011;1533;44.816;20.420;2022-09-09T15:25:22;10.80;;;7.33;;
3046;SDS011;1533;44.816;20.420;2022-09-09T15:27:47;8.83;;;7.30;;
3046;SDS011;1533;44.816;20.420;2022-09-09T15:30:13;9.60;;;7.90;;
3046;SDS011;1533;44.816;20.420;2022-09-09T15:32:39;10.77;;;7.50;;
3046;SDS011;1533;44.816;20.420;2022-09-09T15:35:04;9.17;;;7.07;;
3046;SDS011;1533;44.816;20.420;2022-09-09T15:37:30;8.60;;;7.70;;
3046;SDS011;1533;44.816;20.420;2022-09-09T15:39:56;8.10;;;7.30;;
3046;SDS011;1533;44.816;20.420;2022-09-09T15:42:26;10.70;;;7.90;;
3046;SDS011;1533;44.816;20.420;2022-09-09T15:44:52;12.30;;;7.10;;
3046;SDS011;1533;44.816;20.420;2022-09-09T15:47:17;11.50;;;7.13;;
3046;SDS011;1533;44.816;20.420;2022-09-09T15:49:43;9.27;;;7.43;;
3046;SDS011;1533;44.816;20.420;2022-09-09T15:52:09;12.63;;;7.17;;
3046;SDS011;1533;44.816;20.420;2022-09-09T15:54:36;13.67;;;7.53;;
3046;SDS011;1533;44.816;20.420;2022-09-09T15:57:09;10.00;;;8.03;;
3046;SDS011;1533;44.816;20.420;2022-09-09T15:59:37;8.53;;;7.23;;
3046;SDS011;1533;44.816;20.420;2022-09-09T16:02:02;15.57;;;8.37;;
3046;SDS011;1533;44.816;20.420;2022-09-09T16:04:29;14.90;;;7.97;;
3046;SDS011;1533;44.816;20.420;2022-09-09T16:06:57;16.60;;;8.30;;
3046;SDS011;1533;44.816;20.420;2022-09-09T16:09:32;11.70;;;7.77;;
3046;SDS011;1533;44.816;20.420;2022-09-09T16:11:58;10.67;;;8.43;;
3046;SDS011;1533;44.816;20.420;2022-09-09T16:14:26;9.50;;;8.00;;
3046;SDS011;1533;44.816;20.420;2022-09-09T16:17:10;10.63;;;8.20;;
3046;SDS011;1533;44.816;20.420;2022-09-09T16:19:36;10.40;;;8.10;;
3046;SDS011;1533;44.816;20.420;2022-09-09T16:22:02;10.30;;;8.23;;
3046;SDS011;1533;44.816;20.420;2022-09-09T16:24:29;10.87;;;8.30;;
3046;SDS011;1533;44.816;20.420;2022-09-09T16:26:57;9.67;;;6.90;;
3046;SDS011;1533;44.816;20.420;2022-09-09T16:29:23;10.43;;;8.43;;
3046;SDS011;1533;44.816;20.420;2022-09-09T16:31:54;9.13;;;6.73;;
3046;SDS011;1533;44.816;20.420;2022-09-09T16:34:20;8.87;;;7.50;;
3046;SDS011;1533;44.816;20.420;2022-09-09T16:36:47;13.93;;;7.17;;
3046;SDS011;1533;44.816;20.420;2022-09-09T16:39:14;18.07;;;7.80;;
3046;SDS011;1533;44.816;20.420;2022-09-09T16:41:43;11.47;;;6.80;;
3046;SDS011;1533;44.816;20.420;2022-09-09T16:44:38;13.63;;;8.07;;
3046;SDS011;1533;44.816;20.420;2022-09-09T16:47:24;9.47;;;7.53;;
3046;SDS011;1533;44.816;20.420;2022-09-09T16:49:54;12.97;;;8.37;;
3046;SDS011;1533;44.816;20.420;2022-09-09T16:52:20;15.00;;;8.87;;
3046;SDS011;1533;44.816;20.420;2022-09-09T16:54:46;12.37;;;8.47;;
3046;SDS011;1533;44.816;20.420;2022-09-09T16:57:11;11.93;;;7.47;;
3046;SDS011;1533;44.816;20.420;2022-09-09T16:59:39;8.73;;;7.80;;
3046;SDS011;1533;44.816;20.420;2022-09-09T17:02:19;12.00;;;7.70;;
3046;SDS011;1533;44.816;20.420;2022-09-09T17:04:47;10.17;;;7.43;;
3046;SDS011;1533;44.816;20.420;2022-09-09T17:07:30;14.30;;;8.57;;
3046;SDS011;1533;44.816;20.420;2022-09-09T17:09:57;19.23;;;9.10;;
3046;SDS011;1533;44.816;20.420;2022-09-09T17:12:40;14.27;;;8.20;;
3046;SDS011;1533;44.816;20.420;2022-09-09T17:15:08;12.10;;;8.33;;
3046;SDS011;1533;44.816;20.420;2022-09-09T17:17:35;13.03;;;8.90;;
3046;SDS011;1533;44.816;20.420;2022-09-09T17:20:00;10.60;;;8.33;;
3046;SDS011;1533;44.816;20.420;2022-09-09T17:22:30;12.00;;;8.30;;
3046;SDS011;1533;44.816;20.420;2022-09-09T17:24:59;10.50;;;7.77;;
3046;SDS011;1533;44.816;20.420;2022-09-09T17:27:35;10.80;;;8.80;;
3046;SDS011;1533;44.816;20.420;2022-09-09T17:30:03;14.63;;;9.10;;
3046;SDS011;1533;44.816;20.420;2022-09-09T17:32:32;14.03;;;10.20;;
3046;SDS011;1533;44.816;20.420;2022-09-09T17:35:06;17.97;;;10.13;;
3046;SDS011;1533;44.816;20.420;2022-09-09T17:37:32;12.70;;;8.30;;
3046;SDS011;1533;44.816;20.420;2022-09-09T17:39:59;12.53;;;8.33;;
3046;SDS011;1533;44.816;20.420;2022-09-09T17:42:25;15.40;;;8.70;;
3046;SDS011;1533;44.816;20.420;2022-09-09T17:44:56;10.20;;;7.50;;
3046;SDS011;1533;44.816;20.420;2022-09-09T17:47:25;10.30;;;8.50;;
3046;SDS011;1533;44.816;20.420;2022-09-09T17:49:50;9.93;;;7.70;;
3046;SDS011;1533;44.816;20.420;2022-09-09T17:52:16;15.03;;;7.50;;
3046;SDS011;1533;44.816;20.420;2022-09-09T17:54:41;10.83;;;8.43;;
3046;SDS011;1533;44.816;20.420;2022-09-09T17:57:07;13.00;;;8.30;;
3046;SDS011;1533;44.816;20.420;2022-09-09T17:59:42;11.10;;;7.57;;
3046;SDS011;1533;44.816;20.420;2022-09-09T18:02:08;9.77;;;6.80;;
3046;SDS011;1533;44.816;20.420;2022-09-09T18:04:43;10.70;;;7.97;;
3046;SDS011;1533;44.816;20.420;2022-09-09T18:07:10;12.90;;;8.20;;
3046;SDS011;1533;44.816;20.420;2022-09-09T18:09:35;11.63;;;8.37;;
3046;SDS011;1533;44.816;20.420;2022-09-09T18:12:03;12.60;;;8.43;;
3046;SDS011;1533;44.816;20.420;2022-09-09T18:14:29;13.33;;;9.17;;
3046;SDS011;1533;44.816;20.420;2022-09-09T18:16:58;10.60;;;7.87;;
3046;SDS011;1533;44.816;20.420;2022-09-09T18:19:25;17.30;;;8.90;;
3046;SDS011;1533;44.816;20.420;2022-09-09T18:21:54;11.43;;;7.90;;
3046;SDS011;1533;44.816;20.420;2022-09-09T18:24:22;13.93;;;8.57;;
3046;SDS011;1533;44.816;20.420;2022-09-09T18:26:49;11.23;;;7.80;;
3046;SDS011;1533;44.816;20.420;2022-09-09T18:29:16;8.73;;;7.83;;
3046;SDS011;1533;44.816;20.420;2022-09-09T18:31:46;15.03;;;8.60;;
3046;SDS011;1533;44.816;20.420;2022-09-09T18:34:12;14.90;;;9.27;;
3046;SDS011;1533;44.816;20.420;2022-09-09T18:36:40;12.57;;;8.67;;
3046;SDS011;1533;44.816;20.420;2022-09-09T18:39:08;11.50;;;8.23;;
3046;SDS011;1533;44.816;20.420;2022-09-09T18:41:38;11.80;;;8.50;;
3046;SDS011;1533;44.816;20.420;2022-09-09T18:44:07;12.03;;;7.60;;
3046;SDS011;1533;44.816;20.420;2022-09-09T18:46:36;11.60;;;8.30;;
3046;SDS011;1533;44.816;20.420;2022-09-09T18:49:06;10.30;;;8.83;;
3046;SDS011;1533;44.816;20.420;2022-09-09T18:51:32;9.77;;;7.70;;
3046;SDS011;1533;44.816;20.420;2022-09-09T18:54:01;11.60;;;8.93;;
3046;SDS011;1533;44.816;20.420;2022-09-09T18:56:29;10.50;;;8.37;;
3046;SDS011;1533;44.816;20.420;2022-09-09T18:58:56;14.90;;;9.00;;
3046;SDS011;1533;44.816;20.420;2022-09-09T19:01:23;11.70;;;8.47;;
3046;SDS011;1533;44.816;20.420;2022-09-09T19:03:49;10.07;;;7.40;;
3046;SDS011;1533;44.816;20.420;2022-09-09T19:06:20;12.93;;;8.77;;
3046;SDS011;1533;44.816;20.420;2022-09-09T19:08:50;15.50;;;9.17;;
3046;SDS011;1533;44.816;20.420;2022-09-09T19:11:18;16.23;;;8.00;;
3046;SDS011;1533;44.816;20.420;2022-09-09T19:13:57;14.90;;;8.70;;
3046;SDS011;1533;44.816;20.420;2022-09-09T19:16:27;11.07;;;8.00;;
3046;SDS011;1533;44.816;20.420;2022-09-09T19:19:13;15.50;;;8.80;;
3046;SDS011;1533;44.816;20.420;2022-09-09T19:21:40;16.27;;;9.80;;
3046;SDS011;1533;44.816;20.420;2022-09-09T19:24:12;13.30;;;9.13;;
3046;SDS011;1533;44.816;20.420;2022-09-09T19:26:55;18.53;;;9.33;;
3046;SDS011;1533;44.816;20.420;2022-09-09T19:29:26;15.30;;;10.83;;
3046;SDS011;1533;44.816;20.420;2022-09-09T19:35:10;14.13;;;9.30;;
3046;SDS011;1533;44.816;20.420;2022-09-09T19:37:56;14.97;;;9.80;;
3046;SDS011;1533;44.816;20.420;2022-09-09T19:40:23;16.27;;;10.10;;
3046;SDS011;1533;44.816;20.420;2022-09-09T19:43:05;14.37;;;10.80;;
3046;SDS011;1533;44.816;20.420;2022-09-09T19:45:35;10.97;;;9.00;;
3046;SDS011;1533;44.816;20.420;2022-09-09T19:48:08;17.23;;;10.30;;
3046;SDS011;1533;44.816;20.420;2022-09-09T19:50:39;13.33;;;8.70;;
3046;SDS011;1533;44.816;20.420;2022-09-09T19:53:25;9.43;;;7.83;;
3046;SDS011;1533;44.816;20.420;2022-09-09T19:55:54;13.73;;;8.60;;
3046;SDS011;1533;44.816;20.420;2022-09-09T19:58:20;12.07;;;8.70;;
3046;SDS011;1533;44.816;20.420;2022-09-09T20:00:45;12.20;;;8.73;;
3046;SDS011;1533;44.816;20.420;2022-09-09T20:03:11;15.17;;;9.10;;
3046;SDS011;1533;44.816;20.420;2022-09-09T20:05:40;14.10;;;9.07;;
3046;SDS011;1533;44.816;20.420;2022-09-09T20:08:08;13.00;;;9.07;;
3046;SDS011;1533;44.816;20.420;2022-09-09T20:10:42;24.57;;;9.57;;
3046;SDS011;1533;44.816;20.420;2022-09-09T20:13:30;17.00;;;10.20;;
3046;SDS011;1533;44.816;20.420;2022-09-09T20:16:19;15.03;;;8.83;;
3046;SDS011;1533;44.816;20.420;2022-09-09T20:18:47;13.83;;;9.60;;
3046;SDS011;1533;44.816;20.420;2022-09-09T20:21:51;14.37;;;9.10;;